Back to Top

Language: 

My Weather Underground Personal Weather Station Historical Data with Graphs...

Delerius Weather Station Historical Data
Daily Summary for December 8, 2017 Units:  Metric    English   Both
« Previous Day
Next Day »
Daily Weekly Monthly Yearly Custom
  High: Low: Average:
Temperature: 4.3 °C 0.3 °C 1.9 °C
Dew Point: 1.2 °C -3.4 °C -2.1 °C
Humidity: 93 % 63 % 75 %
Wind Speed: 27.4 km/h 1.6 km/h 16.9 km/h
Wind Gust: 48.3 km/h - -
Wind:- - WNW
Pressure: 1016.5 hPa 1006.7 hPa -
Precipitation: 1.02 mm    
Historical Graphs
 
 
Tabular Data for December 8, 2017
Time Temperature Dew Point Pressure Wind Wind Speed Wind Gust Humidity Rainfall Rate (Hourly) solar Conditions
00:00 2.6 °C 0.5 °C 1007.3 hPa NW 11.3 km/h 16.1 km/h 86 % 0.25 mm 0 W/m2
00:05 2.3 °C 0.3 °C 1007.3 hPa NW 6.4 km/h 12.9 km/h 87 % 0.25 mm 0 W/m2
00:10 2 °C 0.2 °C 1007.3 hPa WNW 8 km/h 16.1 km/h 88 % 0.51 mm 0 W/m2
00:15 1.8 °C 0.2 °C 1007 hPa WNW 9.7 km/h 14.5 km/h 89 % 0.51 mm 0 W/m2
00:20 1.6 °C 0.1 °C 1007 hPa West 8 km/h 14.5 km/h 90 % 0.51 mm 0 W/m2
00:25 1.6 °C 0.1 °C 1007 hPa West 8 km/h 14.5 km/h 90 % 0.51 mm 0 W/m2
00:30 1.6 °C 0.3 °C 1007 hPa West 1.6 km/h 6.4 km/h 91 % 0.51 mm 0 W/m2
00:35 1.6 °C 0.3 °C 1007 hPa West 3.2 km/h 6.4 km/h 91 % 0.51 mm 0 W/m2
00:40 1.6 °C 0.4 °C 1007 hPa West 1.6 km/h 6.4 km/h 92 % 0.76 mm 0 W/m2
00:45 1.6 °C 0.4 °C 1007 hPa WNW 6.4 km/h 19.3 km/h 92 % 0.76 mm 0 W/m2
00:50 1.8 °C 0.8 °C 1007 hPa WNW 16.1 km/h 22.5 km/h 93 % 0.76 mm 0 W/m2
00:55 1.9 °C 0.9 °C 1007 hPa WNW 16.1 km/h 20.9 km/h 93 % 0.76 mm 0 W/m2
01:00 2.1 °C 1.1 °C 1007 hPa WNW 17.7 km/h 29 km/h 93 % 0.76 mm 0 W/m2
01:05 2.2 °C 1.2 °C 1006.7 hPa WNW 16.1 km/h 24.1 km/h 93 % 0.76 mm 0 W/m2
01:10 2.3 °C 1.1 °C 1006.7 hPa WNW 19.3 km/h 32.2 km/h 92 % 0.51 mm 0 W/m2
01:15 2.4 °C 1.2 °C 1006.7 hPa WNW 17.7 km/h 25.7 km/h 92 % 0.51 mm 0 W/m2
01:20 2.4 °C 1.2 °C 1006.7 hPa West 17.7 km/h 24.1 km/h 92 % 0.76 mm 0 W/m2
01:25 2.4 °C 1.2 °C 1006.7 hPa WNW 19.3 km/h 29 km/h 92 % 0.51 mm 0 W/m2
01:30 2.5 °C 1.2 °C 1006.7 hPa West 19.3 km/h 32.2 km/h 91 % 0.51 mm 0 W/m2
01:35 2.4 °C 1.1 °C 1006.7 hPa WNW 16.1 km/h 30.6 km/h 91 % 0.51 mm 0 W/m2
01:40 2.4 °C 1.1 °C 1006.7 hPa WNW 19.3 km/h 32.2 km/h 91 % 0.51 mm 0 W/m2
01:45 2.4 °C 1.1 °C 1006.7 hPa WNW 22.5 km/h 33.8 km/h 91 % 0.51 mm 0 W/m2
01:50 2.4 °C 1.1 °C 1007 hPa WNW 17.7 km/h 25.7 km/h 91 % 0.51 mm 0 W/m2
01:55 2.3 °C 1 °C 1007 hPa WNW 19.3 km/h 25.7 km/h 91 % 0.25 mm 0 W/m2
09:14 1.2 °C -1.9 °C 1012.1 hPa West 14.5 km/h 16.1 km/h 80 % 0 mm 33 W/m2
09:15 1.2 °C -1.9 °C 1012.1 hPa WNW 17.7 km/h 25.7 km/h 80 % 0 mm 33 W/m2
09:25 1.3 °C -1.8 °C 1012.1 hPa WNW 17.7 km/h 29 km/h 80 % 0 mm 128 W/m2
09:30 1.4 °C -1.7 °C 1012.1 hPa WNW 22.5 km/h 33.8 km/h 80 % 0 mm 137 W/m2
09:35 1.7 °C -1.6 °C 1012.1 hPa WNW 16.1 km/h 29 km/h 79 % 0 mm 144 W/m2
09:40 1.8 °C -1.6 °C 1012.4 hPa WNW 19.3 km/h 29 km/h 78 % 0 mm 149 W/m2
09:45 1.9 °C -1.6 °C 1012.4 hPa West 22.5 km/h 40.2 km/h 78 % 0 mm 158 W/m2
09:50 2 °C -1.4 °C 1012.4 hPa WNW 20.9 km/h 33.8 km/h 78 % 0 mm 163 W/m2
09:55 2.1 °C -1.5 °C 1012.4 hPa WNW 20.9 km/h 35.4 km/h 77 % 0 mm 171 W/m2
10:00 2.2 °C -1.4 °C 1012.8 hPa WNW 20.9 km/h 33.8 km/h 77 % 0 mm 178 W/m2
10:06 2.3 °C -1.5 °C 1012.8 hPa WNW 22.5 km/h 40.2 km/h 76 % 0 mm 183 W/m2
10:11 2.3 °C -1.7 °C 1012.8 hPa WNW 20.9 km/h 35.4 km/h 75 % 0 mm 192 W/m2
10:16 2.4 °C -1.8 °C 1013.1 hPa WNW 19.3 km/h 32.2 km/h 74 % 0 mm 195 W/m2
10:26 2.6 °C -1.8 °C 1013.1 hPa WNW 17.7 km/h 35.4 km/h 73 % 0 mm 206 W/m2
10:31 2.7 °C -1.8 °C 1013.1 hPa WNW 24.1 km/h 40.2 km/h 72 % 0 mm 211 W/m2
10:36 2.8 °C -1.8 °C 1013.1 hPa WNW 19.3 km/h 32.2 km/h 72 % 0 mm 214 W/m2
10:46 3.1 °C -1.4 °C 1013.1 hPa WNW 20.9 km/h 37 km/h 72 % 0 mm 225 W/m2
10:51 3.1 °C -1.7 °C 1013.1 hPa WNW 22.5 km/h 37 km/h 71 % 0 mm 229 W/m2
10:56 3.2 °C -1.4 °C 1013.1 hPa WNW 25.7 km/h 38.6 km/h 72 % 0 mm 234 W/m2
11:01 3.3 °C -1.3 °C 1013.1 hPa WNW 20.9 km/h 38.6 km/h 72 % 0 mm 237 W/m2
11:06 3.3 °C -1.3 °C 1013.1 hPa WNW 20.9 km/h 32.2 km/h 72 % 0 mm 241 W/m2
11:11 3.4 °C -1 °C 1013.1 hPa WNW 20.9 km/h 33.8 km/h 73 % 0 mm 244 W/m2
11:16 3.5 °C -0.9 °C 1013.4 hPa WNW 27.4 km/h 48.3 km/h 73 % 0 mm 244 W/m2
11:21 3.6 °C -0.8 °C 1013.1 hPa WNW 22.5 km/h 35.4 km/h 73 % 0 mm 246 W/m2
11:31 3.7 °C -1.1 °C 1013.1 hPa WNW 24.1 km/h 40.2 km/h 71 % 0 mm 251 W/m2
11:41 3.9 °C -1.1 °C 1013.4 hPa WNW 22.5 km/h 35.4 km/h 70 % 0 mm 251 W/m2
11:46 3.9 °C -1.1 °C 1013.4 hPa WNW 16.1 km/h 29 km/h 70 % 0 mm 255 W/m2
11:51 4.1 °C -0.9 °C 1013.4 hPa WNW 19.3 km/h 33.8 km/h 70 % 0 mm 255 W/m2
12:01 4 °C -1.2 °C 1013.4 hPa WNW 19.3 km/h 33.8 km/h 69 % 0 mm 255 W/m2
12:04 3.9 °C -1.5 °C 1013.8 hPa WNW 25.7 km/h 45.1 km/h 68 % 0 mm 255 W/m2
12:09 3.9 °C -1.7 °C 1013.4 hPa NW 24.1 km/h 37 km/h 67 % 0 mm 255 W/m2
12:14 3.9 °C -1.7 °C 1013.4 hPa WNW 25.7 km/h 45.1 km/h 67 % 0 mm 253 W/m2
12:19 4 °C -1.4 °C 1013.4 hPa WNW 19.3 km/h 30.6 km/h 68 % 0 mm 251 W/m2
12:24 4.1 °C -1.5 °C 1013.4 hPa WNW 24.1 km/h 32.2 km/h 67 % 0 mm 248 W/m2
12:29 4.1 °C -1.5 °C 1013.4 hPa WNW 24.1 km/h 38.6 km/h 67 % 0 mm 250 W/m2
12:34 4.1 °C -1.5 °C 1013.4 hPa WNW 19.3 km/h 29 km/h 67 % 0 mm 248 W/m2
12:39 4.1 °C -1.7 °C 1013.4 hPa WNW 22.5 km/h 35.4 km/h 66 % 0 mm 241 W/m2
12:44 4.2 °C -1.4 °C 1013.4 hPa WNW 20.9 km/h 33.8 km/h 67 % 0 mm 241 W/m2
12:49 4.3 °C -1.5 °C 1013.4 hPa NW 20.9 km/h 33.8 km/h 66 % 0 mm 234 W/m2
12:54 4.2 °C -1.6 °C 1013.8 hPa WNW 20.9 km/h 35.4 km/h 66 % 0 mm 234 W/m2
12:59 4.3 °C -1.5 °C 1013.8 hPa WNW 17.7 km/h 25.7 km/h 66 % 0 mm 227 W/m2
13:04 4.3 °C -1.5 °C 1013.8 hPa WNW 22.5 km/h 35.4 km/h 66 % 0 mm 223 W/m2
13:09 4.2 °C -2 °C 1013.8 hPa WNW 25.7 km/h 40.2 km/h 64 % 0 mm 220 W/m2
13:14 4.1 °C -2.1 °C 1013.8 hPa WNW 20.9 km/h 32.2 km/h 64 % 0 mm 214 W/m2
13:19 4.1 °C -1.9 °C 1013.8 hPa WNW 20.9 km/h 33.8 km/h 65 % 0 mm 209 W/m2
13:24 4.1 °C -1.9 °C 1013.8 hPa WNW 20.9 km/h 32.2 km/h 65 % 0 mm 204 W/m2
13:29 4.1 °C -1.9 °C 1013.8 hPa WNW 16.1 km/h 25.7 km/h 65 % 0 mm 199 W/m2
13:34 4.1 °C -1.9 °C 1013.8 hPa WNW 17.7 km/h 30.6 km/h 65 % 0 mm 193 W/m2
13:39 4.1 °C -2.3 °C 1014.1 hPa WNW 24.1 km/h 38.6 km/h 63 % 0 mm 188 W/m2
13:44 4 °C -2.2 °C 1014.1 hPa WNW 17.7 km/h 24.1 km/h 64 % 0 mm 183 W/m2
13:46 4.1 °C -2.1 °C 1013.8 hPa WNW 16.1 km/h 29 km/h 64 % 0 mm 181 W/m2
13:51 3.9 °C -2.5 °C 1013.8 hPa WNW 19.3 km/h 37 km/h 63 % 0 mm 176 W/m2
13:56 3.9 °C -2.5 °C 1013.8 hPa WNW 24.1 km/h 40.2 km/h 63 % 0 mm 167 W/m2
14:01 3.8 °C -2.4 °C 1014.1 hPa WNW 24.1 km/h 35.4 km/h 64 % 0 mm 156 W/m2
14:06 3.8 °C -2.2 °C 1014.1 hPa NW 20.9 km/h 37 km/h 65 % 0 mm 151 W/m2
14:11 3.7 °C -2.3 °C 1014.1 hPa WNW 22.5 km/h 37 km/h 65 % 0 mm 141 W/m2
14:16 3.7 °C -2.1 °C 1014.1 hPa WNW 12.9 km/h 19.3 km/h 66 % 0 mm 132 W/m2
14:21 3.7 °C -2.3 °C 1014.1 hPa NW 14.5 km/h 25.7 km/h 65 % 0 mm 123 W/m2
14:26 3.6 °C -2.6 °C 1014.1 hPa WNW 17.7 km/h 32.2 km/h 64 % 0 mm 76 W/m2
14:36 3.3 °C -2.9 °C 1014.1 hPa WNW 19.3 km/h 30.6 km/h 64 % 0 mm 95 W/m2
14:41 3.2 °C -2.8 °C 1014.4 hPa NW 16.1 km/h 30.6 km/h 65 % 0 mm 81 W/m2
14:46 3.1 °C -2.7 °C 1014.1 hPa WNW 19.3 km/h 33.8 km/h 66 % 0 mm 21 W/m2
14:56 2.7 °C -2.8 °C 1014.1 hPa WNW 17.7 km/h 29 km/h 67 % 0 mm 16 W/m2
15:01 2.6 °C -2.9 °C 1014.1 hPa WNW 20.9 km/h 33.8 km/h 67 % 0 mm 14 W/m2
15:06 2.4 °C -2.9 °C 1014.1 hPa WNW 20.9 km/h 33.8 km/h 68 % 0 mm 14 W/m2
15:11 2.3 °C -2.8 °C 1014.1 hPa WNW 22.5 km/h 33.8 km/h 69 % 0 mm 14 W/m2
15:16 2.3 °C -2.8 °C 1014.1 hPa WNW 19.3 km/h 35.4 km/h 69 % 0 mm 12 W/m2
15:21 2.2 °C -2.7 °C 1014.1 hPa WNW 22.5 km/h 32.2 km/h 70 % 0 mm 12 W/m2
15:36 2 °C -2.5 °C 1014.1 hPa WNW 17.7 km/h 29 km/h 72 % 0 mm 9 W/m2
15:46 1.8 °C -2.6 °C 1014.1 hPa WNW 16.1 km/h 22.5 km/h 73 % 0 mm 5 W/m2
15:51 1.8 °C -2.3 °C 1014.1 hPa WNW 19.3 km/h 33.8 km/h 74 % 0 mm 5 W/m2
15:56 1.7 °C -2.4 °C 1014.1 hPa WNW 17.7 km/h 29 km/h 74 % 0 mm 0 W/m2
16:02 1.7 °C -2.4 °C 1014.1 hPa WNW 16.1 km/h 29 km/h 74 % 0 mm 0 W/m2
16:07 1.7 °C -2.3 °C 1014.1 hPa WNW 17.7 km/h 29 km/h 75 % 0 mm 0 W/m2
16:12 1.6 °C -2.3 °C 1014.1 hPa WNW 14.5 km/h 20.9 km/h 75 % 0 mm 0 W/m2
16:22 1.6 °C -2.3 °C 1014.1 hPa WNW 16.1 km/h 25.7 km/h 75 % 0 mm 0 W/m2
16:32 1.6 °C -2.3 °C 1014.1 hPa WNW 19.3 km/h 30.6 km/h 75 % 0 mm 0 W/m2
16:37 1.6 °C -2.2 °C 1014.4 hPa WNW 16.1 km/h 24.1 km/h 76 % 0 mm 0 W/m2
16:47 1.4 °C -2.4 °C 1014.4 hPa WNW 14.5 km/h 24.1 km/h 76 % 0 mm 0 W/m2
16:57 1.3 °C -2.4 °C 1014.8 hPa WNW 14.5 km/h 24.1 km/h 76 % 0 mm 0 W/m2
17:02 1.3 °C -2.4 °C 1014.8 hPa WNW 16.1 km/h 24.1 km/h 76 % 0 mm 0 W/m2
17:07 1.3 °C -2.4 °C 1014.8 hPa WNW 14.5 km/h 22.5 km/h 76 % 0 mm 0 W/m2
17:12 1.3 °C -2.4 °C 1014.8 hPa WNW 16.1 km/h 22.5 km/h 76 % 0 mm 0 W/m2
17:17 1.2 °C -2.7 °C 1014.8 hPa WNW 19.3 km/h 25.7 km/h 75 % 0 mm 0 W/m2
17:22 1.2 °C -2.9 °C 1015.1 hPa WNW 17.7 km/h 24.1 km/h 74 % 0 mm 0 W/m2
17:27 1.2 °C -2.9 °C 1015.1 hPa WNW 16.1 km/h 24.1 km/h 74 % 0 mm 0 W/m2
17:37 1.1 °C -3 °C 1015.1 hPa WNW 19.3 km/h 25.7 km/h 74 % 0 mm 0 W/m2
17:42 1.1 °C -3 °C 1015.1 hPa WNW 12.9 km/h 19.3 km/h 74 % 0 mm 0 W/m2
17:47 1.1 °C -3 °C 1015.1 hPa WNW 16.1 km/h 24.1 km/h 74 % 0 mm 0 W/m2
17:52 1 °C -3.1 °C 1014.8 hPa WNW 17.7 km/h 30.6 km/h 74 % 0 mm 0 W/m2
18:02 1 °C -2.9 °C 1015.1 hPa WNW 19.3 km/h 35.4 km/h 75 % 0 mm 0 W/m2
18:07 0.9 °C -3.1 °C 1015.1 hPa WNW 14.5 km/h 24.1 km/h 75 % 0 mm 0 W/m2
18:17 0.9 °C -3.1 °C 1015.1 hPa WNW 12.9 km/h 19.3 km/h 75 % 0 mm 0 W/m2
18:22 0.9 °C -3.1 °C 1015.5 hPa WNW 14.5 km/h 20.9 km/h 75 % 0 mm 0 W/m2
18:32 0.9 °C -3.1 °C 1015.1 hPa West 17.7 km/h 25.7 km/h 75 % 0 mm 0 W/m2
18:37 0.9 °C -3.1 °C 1015.1 hPa WNW 16.1 km/h 22.5 km/h 75 % 0 mm 0 W/m2
18:52 0.8 °C -3.1 °C 1015.5 hPa WNW 16.1 km/h 24.1 km/h 75 % 0 mm 0 W/m2
18:57 0.8 °C -3.1 °C 1015.8 hPa WNW 17.7 km/h 37 km/h 75 % 0 mm 0 W/m2
19:02 0.8 °C -3.1 °C 1015.5 hPa WNW 16.1 km/h 29 km/h 75 % 0 mm 0 W/m2
19:08 0.8 °C -3.1 °C 1015.8 hPa WNW 19.3 km/h 25.7 km/h 75 % 0 mm 0 W/m2
19:13 0.8 °C -3.1 °C 1015.8 hPa WNW 16.1 km/h 22.5 km/h 75 % 0 mm 0 W/m2
19:18 0.8 °C -3.1 °C 1015.8 hPa WNW 17.7 km/h 24.1 km/h 75 % 0 mm 0 W/m2
19:23 0.8 °C -3.1 °C 1015.8 hPa WNW 17.7 km/h 24.1 km/h 75 % 0 mm 0 W/m2
19:28 0.8 °C -3.1 °C 1015.8 hPa WNW 17.7 km/h 30.6 km/h 75 % 0 mm 0 W/m2
19:33 0.7 °C -3.4 °C 1015.8 hPa WNW 12.9 km/h 20.9 km/h 74 % 0 mm 0 W/m2
19:38 0.7 °C -3.2 °C 1015.8 hPa WNW 16.1 km/h 24.1 km/h 75 % 0 mm 0 W/m2
19:43 0.7 °C -3.2 °C 1015.8 hPa WNW 19.3 km/h 30.6 km/h 75 % 0 mm 0 W/m2
19:48 0.7 °C -3.2 °C 1015.8 hPa WNW 16.1 km/h 24.1 km/h 75 % 0 mm 0 W/m2
19:58 0.7 °C -3.2 °C 1015.8 hPa WNW 16.1 km/h 22.5 km/h 75 % 0 mm 0 W/m2
20:08 0.7 °C -3.2 °C 1015.8 hPa WNW 14.5 km/h 22.5 km/h 75 % 0 mm 0 W/m2
20:13 0.7 °C -3.2 °C 1015.8 hPa WNW 16.1 km/h 24.1 km/h 75 % 0 mm 0 W/m2
20:18 0.7 °C -3.2 °C 1015.8 hPa WNW 14.5 km/h 25.7 km/h 75 % 0 mm 0 W/m2
20:23 0.7 °C -3.2 °C 1015.8 hPa West 17.7 km/h 25.7 km/h 75 % 0 mm 0 W/m2
20:28 0.7 °C -3.2 °C 1015.8 hPa WNW 14.5 km/h 22.5 km/h 75 % 0 mm 0 W/m2
20:33 0.7 °C -3.2 °C 1015.8 hPa WNW 14.5 km/h 22.5 km/h 75 % 0 mm 0 W/m2
20:38 0.7 °C -3.2 °C 1015.8 hPa WNW 14.5 km/h 20.9 km/h 75 % 0 mm 0 W/m2
20:43 0.6 °C -3.2 °C 1016.1 hPa WNW 12.9 km/h 19.3 km/h 76 % 0 mm 0 W/m2
20:48 0.6 °C -3.2 °C 1016.1 hPa WNW 12.9 km/h 22.5 km/h 76 % 0 mm 0 W/m2
20:53 0.5 °C -3.2 °C 1016.1 hPa WNW 14.5 km/h 22.5 km/h 76 % 0 mm 0 W/m2
20:58 0.5 °C -3.2 °C 1016.1 hPa WNW 14.5 km/h 25.7 km/h 76 % 0 mm 0 W/m2
21:03 0.5 °C -3.2 °C 1016.1 hPa WNW 14.5 km/h 20.9 km/h 76 % 0 mm 0 W/m2
21:08 0.4 °C -3.3 °C 1016.1 hPa WNW 14.5 km/h 20.9 km/h 76 % 0 mm 0 W/m2
21:13 0.5 °C -3.2 °C 1016.1 hPa WNW 12.9 km/h 22.5 km/h 76 % 0 mm 0 W/m2
21:18 0.4 °C -3.3 °C 1016.1 hPa WNW 11.3 km/h 17.7 km/h 76 % 0 mm 0 W/m2
21:23 0.4 °C -3.3 °C 1016.1 hPa WNW 14.5 km/h 22.5 km/h 76 % 0 mm 0 W/m2
21:28 0.4 °C -3.3 °C 1016.1 hPa WNW 9.7 km/h 16.1 km/h 76 % 0 mm 0 W/m2
21:34 0.4 °C -3.3 °C 1016.1 hPa NW 8 km/h 12.9 km/h 76 % 0 mm 0 W/m2
21:39 0.3 °C -3.4 °C 1016.1 hPa WNW 11.3 km/h 17.7 km/h 76 % 0 mm 0 W/m2
21:44 0.3 °C -3.3 °C 1016.1 hPa WNW 12.9 km/h 20.9 km/h 77 % 0 mm 0 W/m2
21:49 0.3 °C -3.3 °C 1016.1 hPa WNW 12.9 km/h 20.9 km/h 77 % 0 mm 0 W/m2
21:54 0.3 °C -3.3 °C 1016.1 hPa WNW 12.9 km/h 25.7 km/h 77 % 0 mm 0 W/m2
21:59 0.3 °C -3.3 °C 1015.8 hPa WNW 12.9 km/h 20.9 km/h 77 % 0 mm 0 W/m2
22:04 0.4 °C -3.2 °C 1015.8 hPa WNW 17.7 km/h 30.6 km/h 77 % 0 mm 0 W/m2
22:09 0.4 °C -3.3 °C 1015.8 hPa WNW 16.1 km/h 24.1 km/h 76 % 0 mm 0 W/m2
22:14 0.6 °C -2.9 °C 1015.8 hPa WNW 16.1 km/h 25.7 km/h 77 % 0 mm 0 W/m2
22:19 0.5 °C -3.1 °C 1015.8 hPa WNW 16.1 km/h 29 km/h 77 % 0 mm 0 W/m2
22:24 0.5 °C -3.1 °C 1015.8 hPa WNW 16.1 km/h 22.5 km/h 77 % 0 mm 0 W/m2
22:29 0.5 °C -3.2 °C 1015.8 hPa WNW 14.5 km/h 22.5 km/h 76 % 0 mm 0 W/m2
22:34 0.5 °C -3.2 °C 1015.8 hPa WNW 17.7 km/h 24.1 km/h 76 % 0 mm 0 W/m2
22:39 0.5 °C -3.2 °C 1016.1 hPa WNW 17.7 km/h 24.1 km/h 76 % 0 mm 0 W/m2
22:44 0.5 °C -3.2 °C 1016.1 hPa WNW 14.5 km/h 20.9 km/h 76 % 0 mm 0 W/m2
22:49 0.5 °C -3.2 °C 1016.1 hPa WNW 12.9 km/h 19.3 km/h 76 % 0 mm 0 W/m2
22:54 0.4 °C -3.3 °C 1016.1 hPa West 11.3 km/h 16.1 km/h 76 % 0 mm 0 W/m2
22:59 0.4 °C -3.3 °C 1015.8 hPa WNW 9.7 km/h 16.1 km/h 76 % 0 mm 0 W/m2
23:04 0.3 °C -3.4 °C 1016.1 hPa WNW 9.7 km/h 14.5 km/h 76 % 0 mm 0 W/m2
23:09 0.3 °C -3.3 °C 1016.1 hPa WNW 11.3 km/h 19.3 km/h 77 % 0 mm 0 W/m2
23:14 0.3 °C -3.3 °C 1016.5 hPa WNW 12.9 km/h 22.5 km/h 77 % 0 mm 0 W/m2
23:19 0.3 °C -3.3 °C 1016.5 hPa WNW 9.7 km/h 14.5 km/h 77 % 0 mm 0 W/m2
23:24 0.3 °C -3.3 °C 1016.1 hPa West 11.3 km/h 17.7 km/h 77 % 0 mm 0 W/m2
23:29 0.3 °C -3.3 °C 1016.1 hPa WNW 16.1 km/h 25.7 km/h 77 % 0 mm 0 W/m2
23:34 0.4 °C -3.2 °C 1016.1 hPa WNW 16.1 km/h 25.7 km/h 77 % 0 mm 0 W/m2
23:39 0.4 °C -3.2 °C 1016.1 hPa WNW 9.7 km/h 17.7 km/h 77 % 0 mm 0 W/m2
23:44 0.4 °C -3.2 °C 1016.1 hPa WNW 17.7 km/h 32.2 km/h 77 % 0 mm 0 W/m2
23:49 0.5 °C -3.1 °C 1016.1 hPa WNW 17.7 km/h 30.6 km/h 77 % 0 mm 0 W/m2
23:54 0.6 °C -2.9 °C 1016.1 hPa WNW 12.9 km/h 22.5 km/h 77 % 0 mm 0 W/m2
23:59 0.6 °C -3.2 °C 1016.1 hPa WNW 14.5 km/h 30.6 km/h 76 % 0 mm 0 W/m2
Delerius-Weather
Compliments of Weather Underground - 1.75 mb

Data updates at regular intervals.